Afton, Virginia
Current Conditions -  °F | °C
As of 12:35 AM on Tuesday 27 Jan 2015 (Local Time) from KW13 Reporting Station
Overcast Overcast  
Wind Chill: 22°   Ceiling: 700
Heat Index: 28°   Visibility: 7mi
Dew Point: 27°   Wind: 6mph
Humidity: 94%   Direction: 330°NNW
Pressure: 29.71"   Gusts: NA
Location:  38°N, 78.78°W
Report Text: KW13 270535Z AUTO 33005KT 7SM BKN007 OVC019 M02/M03 A2971 RMK AO1 T10211030
Loading
Personal Weather Stations






























Interactive Weather Map New forecast layout! Learn more

10-Day Weather Forecast

Advertisements
Track Severe Weather on mobile